Waukau, Wisconsin
Current Conditions -  °F | °C
As of 8:53 PM on Wednesday 22 Oct 2014 (Local Time) from KOSH Reporting Station
Clear Clear  
Wind Chill: 36°   Ceiling: Unl
Heat Index: 40°   Visibility: 10mi
Dew Point: 38°   Wind: 6mph
Humidity: 93%   Direction: 160°SSE
Pressure: 30.24"   Gusts: NA
Location:  43.99°N, 88.77°W
Report Text: KOSH 230153Z 16005KT 10SM CLR 04/03 A3024 RMK AO2 SLP250 T00440033
Loading
Personal Weather Stations






























Interactive Weather Map
Tropical Storm Tracking
New forecast layout! Learn more

10-Day Weather Forecast

Advertisements
Track Severe Weather on mobile